sensor_id;sensor_type;location;lat;lon;timestamp;P1;durP1;ratioP1;P2;durP2;ratioP2
55545;SDS011;44768;50.298;127.520;2022-09-17T00:01:54;14.20;;;3.95;;
55545;SDS011;44768;50.298;127.520;2022-09-17T00:06:56;11.85;;;3.67;;
55545;SDS011;44768;50.298;127.520;2022-09-17T00:11:57;13.30;;;3.83;;
55545;SDS011;44768;50.298;127.520;2022-09-17T00:16:58;9.35;;;4.63;;
55545;SDS011;44768;50.298;127.520;2022-09-17T00:21:59;19.92;;;5.78;;
55545;SDS011;44768;50.298;127.520;2022-09-17T00:27:00;14.48;;;5.47;;
55545;SDS011;44768;50.298;127.520;2022-09-17T00:32:01;23.50;;;10.00;;
55545;SDS011;44768;50.298;127.520;2022-09-17T00:37:03;17.02;;;8.30;;
55545;SDS011;44768;50.298;127.520;2022-09-17T00:42:04;17.88;;;7.70;;
55545;SDS011;44768;50.298;127.520;2022-09-17T00:47:17;13.77;;;5.45;;
55545;SDS011;44768;50.298;127.520;2022-09-17T00:52:21;20.52;;;4.88;;
55545;SDS011;44768;50.298;127.520;2022-09-17T00:57:23;15.95;;;4.10;;
55545;SDS011;44768;50.298;127.520;2022-09-17T01:02:24;12.95;;;4.45;;
55545;SDS011;44768;50.298;127.520;2022-09-17T01:07:52;10.68;;;3.60;;
55545;SDS011;44768;50.298;127.520;2022-09-17T01:12:55;10.75;;;4.07;;
55545;SDS011;44768;50.298;127.520;2022-09-17T01:18:05;6.10;;;2.95;;
55545;SDS011;44768;50.298;127.520;2022-09-17T01:38:38;12.48;;;4.38;;
55545;SDS011;44768;50.298;127.520;2022-09-17T01:48:48;7.90;;;4.43;;
55545;SDS011;44768;50.298;127.520;2022-09-17T01:53:59;23.85;;;5.28;;
55545;SDS011;44768;50.298;127.520;2022-09-17T01:59:13;13.23;;;4.93;;
55545;SDS011;44768;50.298;127.520;2022-09-17T02:04:18;14.35;;;5.30;;
55545;SDS011;44768;50.298;127.520;2022-09-17T02:09:22;12.50;;;5.60;;
55545;SDS011;44768;50.298;127.520;2022-09-17T02:14:27;19.35;;;4.95;;
55545;SDS011;44768;50.298;127.520;2022-09-17T02:19:31;18.65;;;5.47;;
55545;SDS011;44768;50.298;127.520;2022-09-17T02:29:42;11.32;;;5.20;;
55545;SDS011;44768;50.298;127.520;2022-09-17T02:34:44;18.67;;;5.43;;
55545;SDS011;44768;50.298;127.520;2022-09-17T02:39:46;18.45;;;5.85;;
55545;SDS011;44768;50.298;127.520;2022-09-17T03:00:21;24.45;;;8.65;;
55545;SDS011;44768;50.298;127.520;2022-09-17T03:05:30;29.40;;;9.13;;
55545;SDS011;44768;50.298;127.520;2022-09-17T03:10:45;19.00;;;7.40;;
55545;SDS011;44768;50.298;127.520;2022-09-17T03:15:50;19.48;;;6.72;;
55545;SDS011;44768;50.298;127.520;2022-09-17T03:20:51;19.85;;;6.07;;
55545;SDS011;44768;50.298;127.520;2022-09-17T03:30:53;15.98;;;3.63;;
55545;SDS011;44768;50.298;127.520;2022-09-17T03:35:54;14.70;;;3.90;;
55545;SDS011;44768;50.298;127.520;2022-09-17T03:41:00;10.38;;;3.15;;
55545;SDS011;44768;50.298;127.520;2022-09-17T03:46:01;12.32;;;3.50;;
55545;SDS011;44768;50.298;127.520;2022-09-17T03:51:04;8.05;;;2.70;;
55545;SDS011;44768;50.298;127.520;2022-09-17T03:56:06;6.05;;;3.13;;
55545;SDS011;44768;50.298;127.520;2022-09-17T04:01:08;13.43;;;3.30;;
55545;SDS011;44768;50.298;127.520;2022-09-17T04:06:09;12.50;;;3.13;;
55545;SDS011;44768;50.298;127.520;2022-09-17T04:11:11;12.63;;;3.35;;
55545;SDS011;44768;50.298;127.520;2022-09-17T04:16:12;16.58;;;3.90;;
55545;SDS011;44768;50.298;127.520;2022-09-17T04:21:13;20.10;;;3.90;;
55545;SDS011;44768;50.298;127.520;2022-09-17T04:26:14;28.90;;;4.88;;
55545;SDS011;44768;50.298;127.520;2022-09-17T04:31:15;23.75;;;5.93;;
55545;SDS011;44768;50.298;127.520;2022-09-17T04:36:17;60.22;;;6.03;;
55545;SDS011;44768;50.298;127.520;2022-09-17T04:41:18;15.73;;;3.92;;
55545;SDS011;44768;50.298;127.520;2022-09-17T04:46:20;16.67;;;6.00;;
55545;SDS011;44768;50.298;127.520;2022-09-17T04:51:21;29.38;;;4.53;;
55545;SDS011;44768;50.298;127.520;2022-09-17T04:56:22;27.25;;;4.93;;
55545;SDS011;44768;50.298;127.520;2022-09-17T05:01:24;9.57;;;3.75;;
55545;SDS011;44768;50.298;127.520;2022-09-17T05:06:25;15.50;;;4.10;;
55545;SDS011;44768;50.298;127.520;2022-09-17T05:11:27;24.58;;;5.40;;
55545;SDS011;44768;50.298;127.520;2022-09-17T05:16:28;16.05;;;4.07;;
55545;SDS011;44768;50.298;127.520;2022-09-17T05:21:30;17.55;;;4.20;;
55545;SDS011;44768;50.298;127.520;2022-09-17T05:26:31;34.83;;;4.95;;
55545;SDS011;44768;50.298;127.520;2022-09-17T05:31:33;19.73;;;4.07;;
55545;SDS011;44768;50.298;127.520;2022-09-17T05:36:34;17.15;;;4.07;;
55545;SDS011;44768;50.298;127.520;2022-09-17T05:41:36;20.67;;;3.85;;
55545;SDS011;44768;50.298;127.520;2022-09-17T05:46:38;15.35;;;5.13;;
55545;SDS011;44768;50.298;127.520;2022-09-17T05:51:42;18.20;;;4.88;;
55545;SDS011;44768;50.298;127.520;2022-09-17T06:01:44;19.55;;;5.65;;
55545;SDS011;44768;50.298;127.520;2022-09-17T06:06:46;32.65;;;7.15;;
55545;SDS011;44768;50.298;127.520;2022-09-17T06:11:47;15.68;;;3.50;;
55545;SDS011;44768;50.298;127.520;2022-09-17T06:16:49;17.48;;;4.38;;
55545;SDS011;44768;50.298;127.520;2022-09-17T06:26:51;32.00;;;3.17;;
55545;SDS011;44768;50.298;127.520;2022-09-17T06:31:52;26.45;;;2.65;;
55545;SDS011;44768;50.298;127.520;2022-09-17T06:36:56;22.38;;;3.53;;
55545;SDS011;44768;50.298;127.520;2022-09-17T06:41:57;19.30;;;1.83;;
55545;SDS011;44768;50.298;127.520;2022-09-17T06:46:59;12.00;;;1.95;;
55545;SDS011;44768;50.298;127.520;2022-09-17T06:52:02;10.05;;;1.95;;
55545;SDS011;44768;50.298;127.520;2022-09-17T06:57:04;5.47;;;1.85;;
55545;SDS011;44768;50.298;127.520;2022-09-17T07:02:07;7.82;;;2.78;;
55545;SDS011;44768;50.298;127.520;2022-09-17T07:07:08;13.48;;;2.67;;
55545;SDS011;44768;50.298;127.520;2022-09-17T07:12:10;15.07;;;2.97;;
55545;SDS011;44768;50.298;127.520;2022-09-17T07:17:12;4.07;;;2.40;;
55545;SDS011;44768;50.298;127.520;2022-09-17T07:22:14;10.18;;;2.63;;
55545;SDS011;44768;50.298;127.520;2022-09-17T07:27:16;9.40;;;1.90;;
55545;SDS011;44768;50.298;127.520;2022-09-17T07:32:18;10.68;;;2.40;;
55545;SDS011;44768;50.298;127.520;2022-09-17T07:37:19;12.52;;;2.72;;
55545;SDS011;44768;50.298;127.520;2022-09-17T07:42:21;8.60;;;3.67;;
55545;SDS011;44768;50.298;127.520;2022-09-17T07:47:22;9.10;;;3.13;;
55545;SDS011;44768;50.298;127.520;2022-09-17T07:52:24;5.35;;;2.75;;
55545;SDS011;44768;50.298;127.520;2022-09-17T07:57:25;7.10;;;3.50;;
55545;SDS011;44768;50.298;127.520;2022-09-17T08:02:26;8.20;;;4.25;;
55545;SDS011;44768;50.298;127.520;2022-09-17T08:07:28;6.22;;;2.72;;
55545;SDS011;44768;50.298;127.520;2022-09-17T08:12:30;8.82;;;1.90;;
55545;SDS011;44768;50.298;127.520;2022-09-17T08:17:31;7.70;;;2.65;;
55545;SDS011;44768;50.298;127.520;2022-09-17T08:22:33;3.75;;;2.00;;
55545;SDS011;44768;50.298;127.520;2022-09-17T08:27:37;8.00;;;2.05;;
55545;SDS011;44768;50.298;127.520;2022-09-17T08:32:40;6.90;;;2.60;;
55545;SDS011;44768;50.298;127.520;2022-09-17T08:37:42;6.82;;;3.03;;
55545;SDS011;44768;50.298;127.520;2022-09-17T08:42:54;7.93;;;2.55;;
55545;SDS011;44768;50.298;127.520;2022-09-17T08:48:01;6.47;;;2.33;;
55545;SDS011;44768;50.298;127.520;2022-09-17T09:08:43;4.35;;;2.40;;
55545;SDS011;44768;50.298;127.520;2022-09-17T09:13:46;4.68;;;2.30;;
55545;SDS011;44768;50.298;127.520;2022-09-17T09:18:58;5.55;;;2.30;;
55545;SDS011;44768;50.298;127.520;2022-09-17T09:24:16;5.53;;;2.75;;
55545;SDS011;44768;50.298;127.520;2022-09-17T09:34:38;4.07;;;3.00;;
55545;SDS011;44768;50.298;127.520;2022-09-17T09:39:40;6.47;;;2.38;;
55545;SDS011;44768;50.298;127.520;2022-09-17T09:44:43;4.45;;;2.58;;
55545;SDS011;44768;50.298;127.520;2022-09-17T09:49:56;4.82;;;2.22;;
55545;SDS011;44768;50.298;127.520;2022-09-17T10:00:21;5.68;;;2.33;;
55545;SDS011;44768;50.298;127.520;2022-09-17T10:05:26;3.22;;;2.22;;
55545;SDS011;44768;50.298;127.520;2022-09-17T10:10:27;2.88;;;1.70;;
55545;SDS011;44768;50.298;127.520;2022-09-17T10:15:28;2.50;;;1.90;;
55545;SDS011;44768;50.298;127.520;2022-09-17T10:20:30;2.58;;;1.98;;
55545;SDS011;44768;50.298;127.520;2022-09-17T10:25:32;2.03;;;1.80;;
55545;SDS011;44768;50.298;127.520;2022-09-17T10:30:34;4.30;;;2.38;;
55545;SDS011;44768;50.298;127.520;2022-09-17T10:35:35;3.15;;;2.25;;
55545;SDS011;44768;50.298;127.520;2022-09-17T10:40:36;4.03;;;1.77;;
55545;SDS011;44768;50.298;127.520;2022-09-17T10:45:39;2.38;;;2.00;;
55545;SDS011;44768;50.298;127.520;2022-09-17T10:50:47;3.58;;;1.50;;
55545;SDS011;44768;50.298;127.520;2022-09-17T11:01:01;1.38;;;1.23;;
55545;SDS011;44768;50.298;127.520;2022-09-17T11:06:22;2.20;;;1.60;;
55545;SDS011;44768;50.298;127.520;2022-09-17T11:11:38;1.60;;;1.38;;
55545;SDS011;44768;50.298;127.520;2022-09-17T11:42:18;3.10;;;1.10;;
55545;SDS011;44768;50.298;127.520;2022-09-17T11:47:32;1.25;;;1.02;;
55545;SDS011;44768;50.298;127.520;2022-09-17T11:58:13;1.98;;;1.30;;
55545;SDS011;44768;50.298;127.520;2022-09-17T12:09:00;2.58;;;1.15;;
55545;SDS011;44768;50.298;127.520;2022-09-17T12:19:22;1.63;;;1.00;;
55545;SDS011;44768;50.298;127.520;2022-09-17T12:24:27;1.83;;;0.90;;
55545;SDS011;44768;50.298;127.520;2022-09-17T12:39:42;2.13;;;1.50;;
55545;SDS011;44768;50.298;127.520;2022-09-17T12:44:55;1.77;;;1.50;;
55545;SDS011;44768;50.298;127.520;2022-09-17T12:55:09;2.00;;;1.58;;
55545;SDS011;44768;50.298;127.520;2022-09-17T13:00:12;1.42;;;1.33;;
55545;SDS011;44768;50.298;127.520;2022-09-17T13:15:29;1.20;;;1.10;;
55545;SDS011;44768;50.298;127.520;2022-09-17T13:25:49;1.48;;;1.30;;
55545;SDS011;44768;50.298;127.520;2022-09-17T13:35:55;5.97;;;3.33;;
55545;SDS011;44768;50.298;127.520;2022-09-17T13:41:16;1.70;;;1.20;;
55545;SDS011;44768;50.298;127.520;2022-09-17T13:46:20;1.67;;;1.30;;
55545;SDS011;44768;50.298;127.520;2022-09-17T13:56:46;4.43;;;1.40;;
55545;SDS011;44768;50.298;127.520;2022-09-17T14:01:55;2.05;;;1.25;;
55545;SDS011;44768;50.298;127.520;2022-09-17T14:06:57;2.13;;;1.40;;
55545;SDS011;44768;50.298;127.520;2022-09-17T14:11:59;1.52;;;1.42;;
55545;SDS011;44768;50.298;127.520;2022-09-17T14:22:43;2.40;;;1.48;;
55545;SDS011;44768;50.298;127.520;2022-09-17T14:27:55;2.20;;;1.60;;
55545;SDS011;44768;50.298;127.520;2022-09-17T14:33:07;2.35;;;1.60;;
55545;SDS011;44768;50.298;127.520;2022-09-17T14:43:19;2.88;;;1.90;;
55545;SDS011;44768;50.298;127.520;2022-09-17T14:53:26;5.15;;;1.77;;
55545;SDS011;44768;50.298;127.520;2022-09-17T14:58:29;2.05;;;1.70;;
55545;SDS011;44768;50.298;127.520;2022-09-17T15:03:31;2.45;;;2.25;;
55545;SDS011;44768;50.298;127.520;2022-09-17T15:08:34;2.03;;;1.52;;
55545;SDS011;44768;50.298;127.520;2022-09-17T15:23:39;4.80;;;2.00;;
55545;SDS011;44768;50.298;127.520;2022-09-17T15:28:42;2.40;;;1.98;;
55545;SDS011;44768;50.298;127.520;2022-09-17T15:33:44;3.58;;;1.80;;
55545;SDS011;44768;50.298;127.520;2022-09-17T15:38:46;4.72;;;1.83;;
55545;SDS011;44768;50.298;127.520;2022-09-17T15:43:48;3.10;;;1.67;;
55545;SDS011;44768;50.298;127.520;2022-09-17T15:48:50;3.90;;;1.60;;
55545;SDS011;44768;50.298;127.520;2022-09-17T15:53:53;3.05;;;1.90;;
55545;SDS011;44768;50.298;127.520;2022-09-17T15:59:02;2.35;;;1.70;;
55545;SDS011;44768;50.298;127.520;2022-09-17T16:04:09;1.80;;;1.70;;
55545;SDS011;44768;50.298;127.520;2022-09-17T16:14:37;2.80;;;1.70;;
55545;SDS011;44768;50.298;127.520;2022-09-17T16:19:38;1.60;;;1.50;;
55545;SDS011;44768;50.298;127.520;2022-09-17T16:24:39;2.05;;;1.60;;
55545;SDS011;44768;50.298;127.520;2022-09-17T16:29:41;2.92;;;1.90;;
55545;SDS011;44768;50.298;127.520;2022-09-17T16:39:43;4.70;;;1.90;;
55545;SDS011;44768;50.298;127.520;2022-09-17T16:44:44;3.42;;;1.95;;
55545;SDS011;44768;50.298;127.520;2022-09-17T16:49:46;2.63;;;2.10;;
55545;SDS011;44768;50.298;127.520;2022-09-17T16:54:47;3.10;;;1.80;;
55545;SDS011;44768;50.298;127.520;2022-09-17T16:59:49;7.32;;;1.88;;
55545;SDS011;44768;50.298;127.520;2022-09-17T17:04:50;4.38;;;1.95;;
55545;SDS011;44768;50.298;127.520;2022-09-17T17:09:53;3.70;;;1.70;;
55545;SDS011;44768;50.298;127.520;2022-09-17T17:14:54;2.28;;;1.90;;
55545;SDS011;44768;50.298;127.520;2022-09-17T17:19:55;4.10;;;2.22;;
55545;SDS011;44768;50.298;127.520;2022-09-17T17:24:56;2.15;;;1.85;;
55545;SDS011;44768;50.298;127.520;2022-09-17T17:29:59;2.60;;;2.10;;
55545;SDS011;44768;50.298;127.520;2022-09-17T17:35:04;3.58;;;1.73;;
55545;SDS011;44768;50.298;127.520;2022-09-17T17:40:06;3.15;;;1.83;;
55545;SDS011;44768;50.298;127.520;2022-09-17T17:45:11;2.47;;;1.70;;
55545;SDS011;44768;50.298;127.520;2022-09-17T17:50:12;3.33;;;2.03;;
55545;SDS011;44768;50.298;127.520;2022-09-17T17:55:14;2.08;;;1.88;;
55545;SDS011;44768;50.298;127.520;2022-09-17T18:00:16;5.53;;;2.10;;
55545;SDS011;44768;50.298;127.520;2022-09-17T18:05:18;3.65;;;2.00;;
55545;SDS011;44768;50.298;127.520;2022-09-17T18:10:19;2.33;;;2.00;;
55545;SDS011;44768;50.298;127.520;2022-09-17T18:15:22;2.35;;;1.92;;
55545;SDS011;44768;50.298;127.520;2022-09-17T18:20:24;3.38;;;2.10;;
55545;SDS011;44768;50.298;127.520;2022-09-17T18:25:25;2.20;;;2.00;;
55545;SDS011;44768;50.298;127.520;2022-09-17T18:30:28;2.13;;;1.77;;
55545;SDS011;44768;50.298;127.520;2022-09-17T18:35:33;3.83;;;2.20;;
55545;SDS011;44768;50.298;127.520;2022-09-17T18:40:34;4.30;;;2.38;;
55545;SDS011;44768;50.298;127.520;2022-09-17T18:45:35;3.85;;;2.05;;
55545;SDS011;44768;50.298;127.520;2022-09-17T18:50:36;4.93;;;2.83;;
55545;SDS011;44768;50.298;127.520;2022-09-17T18:55:38;4.88;;;2.22;;
55545;SDS011;44768;50.298;127.520;2022-09-17T19:00:39;5.30;;;3.10;;
55545;SDS011;44768;50.298;127.520;2022-09-17T19:05:41;5.03;;;3.13;;
55545;SDS011;44768;50.298;127.520;2022-09-17T19:10:48;5.10;;;3.28;;
55545;SDS011;44768;50.298;127.520;2022-09-17T19:15:50;7.28;;;3.53;;
55545;SDS011;44768;50.298;127.520;2022-09-17T19:20:51;6.57;;;3.63;;
55545;SDS011;44768;50.298;127.520;2022-09-17T19:26:04;4.57;;;3.13;;
55545;SDS011;44768;50.298;127.520;2022-09-17T19:31:07;4.07;;;2.72;;
55545;SDS011;44768;50.298;127.520;2022-09-17T19:36:11;2.35;;;1.92;;
55545;SDS011;44768;50.298;127.520;2022-09-17T19:41:13;2.88;;;1.83;;
55545;SDS011;44768;50.298;127.520;2022-09-17T19:51:41;2.33;;;1.30;;
55545;SDS011;44768;50.298;127.520;2022-09-17T19:56:42;8.10;;;4.50;;
55545;SDS011;44768;50.298;127.520;2022-09-17T20:01:43;3.22;;;1.25;;
55545;SDS011;44768;50.298;127.520;2022-09-17T20:06:45;2.28;;;1.10;;
55545;SDS011;44768;50.298;127.520;2022-09-17T20:11:46;2.22;;;1.15;;
55545;SDS011;44768;50.298;127.520;2022-09-17T20:16:48;1.05;;;1.02;;
55545;SDS011;44768;50.298;127.520;2022-09-17T20:21:49;1.15;;;1.05;;
55545;SDS011;44768;50.298;127.520;2022-09-17T20:26:50;1.77;;;1.30;;
55545;SDS011;44768;50.298;127.520;2022-09-17T20:31:51;1.65;;;1.55;;
55545;SDS011;44768;50.298;127.520;2022-09-17T20:36:53;3.28;;;2.30;;
55545;SDS011;44768;50.298;127.520;2022-09-17T20:41:54;2.25;;;2.05;;
55545;SDS011;44768;50.298;127.520;2022-09-17T20:46:57;6.93;;;4.80;;
55545;SDS011;44768;50.298;127.520;2022-09-17T20:52:01;8.32;;;6.15;;
55545;SDS011;44768;50.298;127.520;2022-09-17T20:57:05;8.60;;;6.00;;
55545;SDS011;44768;50.298;127.520;2022-09-17T21:07:10;8.13;;;7.25;;
55545;SDS011;44768;50.298;127.520;2022-09-17T21:12:12;6.43;;;5.78;;
55545;SDS011;44768;50.298;127.520;2022-09-17T21:17:14;6.10;;;5.50;;
55545;SDS011;44768;50.298;127.520;2022-09-17T21:22:15;6.10;;;5.30;;
55545;SDS011;44768;50.298;127.520;2022-09-17T21:27:16;9.10;;;5.47;;
55545;SDS011;44768;50.298;127.520;2022-09-17T21:32:18;16.67;;;6.90;;
55545;SDS011;44768;50.298;127.520;2022-09-17T21:37:19;6.55;;;5.88;;
55545;SDS011;44768;50.298;127.520;2022-09-17T21:42:20;7.93;;;5.18;;
55545;SDS011;44768;50.298;127.520;2022-09-17T21:47:21;5.18;;;4.22;;
55545;SDS011;44768;50.298;127.520;2022-09-17T21:52:23;4.97;;;3.70;;
55545;SDS011;44768;50.298;127.520;2022-09-17T21:57:24;6.38;;;3.78;;
55545;SDS011;44768;50.298;127.520;2022-09-17T22:02:26;4.25;;;3.53;;
55545;SDS011;44768;50.298;127.520;2022-09-17T22:12:48;4.18;;;3.75;;
55545;SDS011;44768;50.298;127.520;2022-09-17T22:17:49;4.63;;;4.13;;
55545;SDS011;44768;50.298;127.520;2022-09-17T22:22:51;5.40;;;3.55;;
55545;SDS011;44768;50.298;127.520;2022-09-17T22:27:52;8.43;;;4.03;;
55545;SDS011;44768;50.298;127.520;2022-09-17T22:32:53;4.35;;;3.95;;
55545;SDS011;44768;50.298;127.520;2022-09-17T22:37:54;4.18;;;3.70;;
55545;SDS011;44768;50.298;127.520;2022-09-17T22:47:57;6.28;;;3.92;;
55545;SDS011;44768;50.298;127.520;2022-09-17T22:52:58;5.40;;;3.85;;
55545;SDS011;44768;50.298;127.520;2022-09-17T22:57:59;6.88;;;3.80;;
55545;SDS011;44768;50.298;127.520;2022-09-17T23:03:01;5.50;;;3.97;;
55545;SDS011;44768;50.298;127.520;2022-09-17T23:08:03;6.70;;;4.35;;
55545;SDS011;44768;50.298;127.520;2022-09-17T23:13:04;8.27;;;4.22;;
55545;SDS011;44768;50.298;127.520;2022-09-17T23:18:06;7.38;;;4.78;;
55545;SDS011;44768;50.298;127.520;2022-09-17T23:23:07;7.10;;;4.65;;
55545;SDS011;44768;50.298;127.520;2022-09-17T23:28:09;5.78;;;4.72;;
55545;SDS011;44768;50.298;127.520;2022-09-17T23:33:10;9.23;;;5.32;;
55545;SDS011;44768;50.298;127.520;2022-09-17T23:38:13;15.60;;;6.80;;
55545;SDS011;44768;50.298;127.520;2022-09-17T23:43:17;12.48;;;6.43;;
55545;SDS011;44768;50.298;127.520;2022-09-17T23:48:19;8.30;;;5.25;;
55545;SDS011;44768;50.298;127.520;2022-09-17T23:53:20;22.35;;;7.03;;
55545;SDS011;44768;50.298;127.520;2022-09-17T23:58:21;7.97;;;6.30;;
